sensor_id;sensor_type;location;lat;lon;timestamp;pressure;altitude;pressure_sealevel;temperature;humidity
70103;BME280;57470;50.034;15.256;2023-04-21T00:01:46;99504.63;;;8.04;97.01
70103;BME280;57470;50.034;15.256;2023-04-21T00:04:12;99501.00;;;8.05;98.11
70103;BME280;57470;50.034;15.256;2023-04-21T00:06:37;99496.88;;;7.70;99.49
70103;BME280;57470;50.034;15.256;2023-04-21T00:09:06;99493.66;;;7.49;100.00
70103;BME280;57470;50.034;15.256;2023-04-21T00:11:31;99489.91;;;7.69;100.00
70103;BME280;57470;50.034;15.256;2023-04-21T00:13:57;99494.50;;;7.65;100.00
70103;BME280;57470;50.034;15.256;2023-04-21T00:16:22;99494.06;;;7.73;99.18
70103;BME280;57470;50.034;15.256;2023-04-21T00:18:47;99495.69;;;7.75;97.53
70103;BME280;57470;50.034;15.256;2023-04-21T00:21:13;99500.13;;;7.75;97.06
70103;BME280;57470;50.034;15.256;2023-04-21T00:23:38;99494.22;;;7.70;96.19
70103;BME280;57470;50.034;15.256;2023-04-21T00:26:04;99501.34;;;7.69;96.16
70103;BME280;57470;50.034;15.256;2023-04-21T00:28:30;99496.44;;;7.62;95.69
70103;BME280;57470;50.034;15.256;2023-04-21T00:30:55;99490.41;;;7.60;95.84
70103;BME280;57470;50.034;15.256;2023-04-21T00:33:20;99492.97;;;7.45;96.86
70103;BME280;57470;50.034;15.256;2023-04-21T00:35:46;99495.34;;;7.34;98.01
70103;BME280;57470;50.034;15.256;2023-04-21T00:38:11;99493.97;;;7.27;97.88
70103;BME280;57470;50.034;15.256;2023-04-21T00:40:37;99492.25;;;7.26;98.08
70103;BME280;57470;50.034;15.256;2023-04-21T00:43:05;99496.34;;;7.16;98.06
70103;BME280;57470;50.034;15.256;2023-04-21T00:45:31;99487.22;;;7.22;98.02
70103;BME280;57470;50.034;15.256;2023-04-21T00:47:57;99497.03;;;7.20;97.21
70103;BME280;57470;50.034;15.256;2023-04-21T00:50:22;99483.78;;;7.04;98.15
70103;BME280;57470;50.034;15.256;2023-04-21T00:52:48;99487.88;;;6.94;98.62
70103;BME280;57470;50.034;15.256;2023-04-21T00:55:13;99483.09;;;7.00;98.64
70103;BME280;57470;50.034;15.256;2023-04-21T00:57:39;99490.84;;;6.88;98.62
70103;BME280;57470;50.034;15.256;2023-04-21T01:00:05;99486.78;;;6.98;97.83
70103;BME280;57470;50.034;15.256;2023-04-21T01:02:35;99480.81;;;7.10;98.95
70103;BME280;57470;50.034;15.256;2023-04-21T01:05:04;99478.44;;;7.05;100.00
70103;BME280;57470;50.034;15.256;2023-04-21T01:07:31;99485.75;;;7.16;100.00
70103;BME280;57470;50.034;15.256;2023-04-21T01:09:57;99474.69;;;7.25;100.00
70103;BME280;57470;50.034;15.256;2023-04-21T01:12:23;99473.94;;;7.23;100.00
70103;BME280;57470;50.034;15.256;2023-04-21T01:14:49;99475.38;;;7.29;100.00
70103;BME280;57470;50.034;15.256;2023-04-21T01:17:15;99465.72;;;7.28;100.00
70103;BME280;57470;50.034;15.256;2023-04-21T01:19:43;99471.63;;;7.33;100.00
70103;BME280;57470;50.034;15.256;2023-04-21T01:22:10;99464.72;;;7.30;100.00
70103;BME280;57470;50.034;15.256;2023-04-21T01:24:46;99467.34;;;7.30;100.00
70103;BME280;57470;50.034;15.256;2023-04-21T01:27:17;99471.78;;;7.45;100.00
70103;BME280;57470;50.034;15.256;2023-04-21T01:29:43;99467.00;;;7.52;100.00
70103;BME280;57470;50.034;15.256;2023-04-21T01:32:13;99464.81;;;7.60;100.00
70103;BME280;57470;50.034;15.256;2023-04-21T01:34:40;99462.81;;;7.64;100.00
70103;BME280;57470;50.034;15.256;2023-04-21T01:37:07;99459.22;;;7.65;100.00
70103;BME280;57470;50.034;15.256;2023-04-21T01:39:33;99461.53;;;7.71;100.00
70103;BME280;57470;50.034;15.256;2023-04-21T01:42:01;99456.94;;;7.59;100.00
70103;BME280;57470;50.034;15.256;2023-04-21T01:44:27;99455.16;;;7.59;100.00
70103;BME280;57470;50.034;15.256;2023-04-21T01:46:52;99459.81;;;7.70;100.00
70103;BME280;57470;50.034;15.256;2023-04-21T01:49:17;99462.03;;;7.77;100.00
70103;BME280;57470;50.034;15.256;2023-04-21T01:51:43;99466.94;;;7.69;100.00
70103;BME280;57470;50.034;15.256;2023-04-21T01:54:08;99457.69;;;7.61;99.59
70103;BME280;57470;50.034;15.256;2023-04-21T01:56:34;99462.56;;;7.21;100.00
70103;BME280;57470;50.034;15.256;2023-04-21T01:58:59;99469.22;;;7.28;100.00
70103;BME280;57470;50.034;15.256;2023-04-21T02:01:25;99462.75;;;7.49;100.00
70103;BME280;57470;50.034;15.256;2023-04-21T02:03:52;99463.34;;;7.23;99.90
70103;BME280;57470;50.034;15.256;2023-04-21T02:06:19;99462.22;;;7.27;99.12
70103;BME280;57470;50.034;15.256;2023-04-21T02:08:46;99468.78;;;7.20;98.66
70103;BME280;57470;50.034;15.256;2023-04-21T02:11:12;99467.59;;;7.10;98.83
70103;BME280;57470;50.034;15.256;2023-04-21T02:13:39;99466.81;;;7.08;98.26
70103;BME280;57470;50.034;15.256;2023-04-21T02:16:07;99472.22;;;6.89;100.00
70103;BME280;57470;50.034;15.256;2023-04-21T02:18:35;99468.56;;;6.92;98.62
70103;BME280;57470;50.034;15.256;2023-04-21T02:21:05;99474.06;;;6.89;97.31
70103;BME280;57470;50.034;15.256;2023-04-21T02:23:32;99472.22;;;6.89;98.11
70103;BME280;57470;50.034;15.256;2023-04-21T02:25:59;99459.78;;;6.91;97.47
70103;BME280;57470;50.034;15.256;2023-04-21T02:28:26;99467.78;;;6.74;97.91
70103;BME280;57470;50.034;15.256;2023-04-21T02:30:53;99472.38;;;6.70;97.57
70103;BME280;57470;50.034;15.256;2023-04-21T02:33:21;99469.75;;;6.70;97.81
70103;BME280;57470;50.034;15.256;2023-04-21T02:35:48;99471.25;;;6.42;99.65
70103;BME280;57470;50.034;15.256;2023-04-21T02:38:15;99467.59;;;6.61;98.55
70103;BME280;57470;50.034;15.256;2023-04-21T02:40:42;99467.81;;;6.57;99.05
70103;BME280;57470;50.034;15.256;2023-04-21T02:43:09;99465.88;;;6.60;98.35
70103;BME280;57470;50.034;15.256;2023-04-21T02:45:38;99467.66;;;6.60;98.61
70103;BME280;57470;50.034;15.256;2023-04-21T02:48:05;99467.59;;;6.44;98.11
70103;BME280;57470;50.034;15.256;2023-04-21T02:50:32;99471.94;;;6.45;99.25
70103;BME280;57470;50.034;15.256;2023-04-21T02:52:59;99468.44;;;6.27;99.68
70103;BME280;57470;50.034;15.256;2023-04-21T02:55:26;99474.44;;;6.31;100.00
70103;BME280;57470;50.034;15.256;2023-04-21T02:57:53;99466.84;;;6.25;100.00
70103;BME280;57470;50.034;15.256;2023-04-21T03:00:19;99457.97;;;6.43;100.00
70103;BME280;57470;50.034;15.256;2023-04-21T03:02:44;99468.22;;;6.49;100.00
70103;BME280;57470;50.034;15.256;2023-04-21T03:05:10;99462.94;;;6.49;100.00
70103;BME280;57470;50.034;15.256;2023-04-21T03:07:36;99465.59;;;6.32;100.00
70103;BME280;57470;50.034;15.256;2023-04-21T03:10:02;99461.38;;;6.28;100.00
70103;BME280;57470;50.034;15.256;2023-04-21T03:12:27;99458.03;;;6.42;100.00
70103;BME280;57470;50.034;15.256;2023-04-21T03:14:53;99450.88;;;6.26;100.00
70103;BME280;57470;50.034;15.256;2023-04-21T03:17:18;99457.13;;;6.43;100.00
70103;BME280;57470;50.034;15.256;2023-04-21T03:19:43;99463.72;;;6.34;100.00
70103;BME280;57470;50.034;15.256;2023-04-21T03:22:09;99456.56;;;6.36;100.00
70103;BME280;57470;50.034;15.256;2023-04-21T03:24:34;99450.66;;;6.48;100.00
70103;BME280;57470;50.034;15.256;2023-04-21T03:27:00;99453.22;;;6.50;100.00
70103;BME280;57470;50.034;15.256;2023-04-21T03:29:26;99453.81;;;6.55;100.00
70103;BME280;57470;50.034;15.256;2023-04-21T03:31:52;99457.97;;;6.43;100.00
70103;BME280;57470;50.034;15.256;2023-04-21T03:34:17;99460.22;;;6.33;100.00
70103;BME280;57470;50.034;15.256;2023-04-21T03:36:43;99454.50;;;6.25;100.00
70103;BME280;57470;50.034;15.256;2023-04-21T03:39:08;99447.03;;;6.33;100.00
70103;BME280;57470;50.034;15.256;2023-04-21T03:41:34;99451.53;;;6.14;100.00
70103;BME280;57470;50.034;15.256;2023-04-21T03:43:59;99453.81;;;6.55;100.00
70103;BME280;57470;50.034;15.256;2023-04-21T03:46:24;99456.34;;;6.73;100.00
70103;BME280;57470;50.034;15.256;2023-04-21T03:48:50;99448.25;;;6.76;100.00
70103;BME280;57470;50.034;15.256;2023-04-21T03:51:15;99449.34;;;6.72;100.00
70103;BME280;57470;50.034;15.256;2023-04-21T03:53:41;99458.34;;;6.86;100.00
70103;BME280;57470;50.034;15.256;2023-04-21T03:56:07;99448.34;;;6.91;100.00
70103;BME280;57470;50.034;15.256;2023-04-21T03:58:32;99449.56;;;7.01;100.00
70103;BME280;57470;50.034;15.256;2023-04-21T04:00:58;99449.50;;;7.02;100.00
70103;BME280;57470;50.034;15.256;2023-04-21T04:03:23;99453.16;;;7.00;100.00
70103;BME280;57470;50.034;15.256;2023-04-21T04:05:49;99452.72;;;7.07;100.00
70103;BME280;57470;50.034;15.256;2023-04-21T04:08:14;99456.78;;;7.14;100.00
70103;BME280;57470;50.034;15.256;2023-04-21T04:10:39;99458.72;;;7.11;100.00
70103;BME280;57470;50.034;15.256;2023-04-21T04:13:05;99453.94;;;7.02;100.00
70103;BME280;57470;50.034;15.256;2023-04-21T04:15:30;99460.50;;;6.95;100.00
70103;BME280;57470;50.034;15.256;2023-04-21T04:17:55;99453.34;;;7.12;100.00
70103;BME280;57470;50.034;15.256;2023-04-21T04:20:21;99454.00;;;7.16;100.00
70103;BME280;57470;50.034;15.256;2023-04-21T04:22:46;99454.28;;;6.96;100.00
70103;BME280;57470;50.034;15.256;2023-04-21T04:25:12;99461.28;;;7.12;100.00
70103;BME280;57470;50.034;15.256;2023-04-21T04:27:39;99454.38;;;7.10;100.00
70103;BME280;57470;50.034;15.256;2023-04-21T04:30:05;99462.50;;;6.90;100.00
70103;BME280;57470;50.034;15.256;2023-04-21T04:32:31;99465.38;;;6.69;100.00
70103;BME280;57470;50.034;15.256;2023-04-21T04:34:57;99463.97;;;6.62;100.00
70103;BME280;57470;50.034;15.256;2023-04-21T04:37:23;99467.09;;;6.70;100.00
70103;BME280;57470;50.034;15.256;2023-04-21T04:39:52;99463.78;;;6.83;100.00
70103;BME280;57470;50.034;15.256;2023-04-21T04:42:17;99470.66;;;7.02;100.00
70103;BME280;57470;50.034;15.256;2023-04-21T04:44:44;99469.88;;;7.16;100.00
70103;BME280;57470;50.034;15.256;2023-04-21T04:47:10;99457.88;;;7.10;100.00
70103;BME280;57470;50.034;15.256;2023-04-21T04:49:36;99469.72;;;7.19;100.00
70103;BME280;57470;50.034;15.256;2023-04-21T04:52:02;99463.22;;;7.09;100.00
70103;BME280;57470;50.034;15.256;2023-04-21T04:54:27;99461.72;;;7.36;100.00
70103;BME280;57470;50.034;15.256;2023-04-21T04:56:53;99464.94;;;7.26;100.00
70103;BME280;57470;50.034;15.256;2023-04-21T04:59:19;99466.50;;;7.45;100.00
70103;BME280;57470;50.034;15.256;2023-04-21T05:01:44;99467.44;;;7.60;100.00
70103;BME280;57470;50.034;15.256;2023-04-21T05:04:10;99468.03;;;7.49;100.00
70103;BME280;57470;50.034;15.256;2023-04-21T05:06:35;99467.75;;;7.70;100.00
70103;BME280;57470;50.034;15.256;2023-04-21T05:09:01;99473.22;;;7.82;100.00
70103;BME280;57470;50.034;15.256;2023-04-21T05:11:28;99475.00;;;7.82;100.00
70103;BME280;57470;50.034;15.256;2023-04-21T05:13:54;99477.50;;;7.85;100.00
70103;BME280;57470;50.034;15.256;2023-04-21T05:16:19;99482.34;;;7.93;100.00
70103;BME280;57470;50.034;15.256;2023-04-21T05:18:45;99472.47;;;8.10;100.00
70103;BME280;57470;50.034;15.256;2023-04-21T05:21:10;99473.03;;;8.15;100.00
70103;BME280;57470;50.034;15.256;2023-04-21T05:23:36;99473.91;;;8.16;100.00
70103;BME280;57470;50.034;15.256;2023-04-21T05:26:01;99481.91;;;8.30;100.00
70103;BME280;57470;50.034;15.256;2023-04-21T05:28:26;99480.13;;;8.31;100.00
70103;BME280;57470;50.034;15.256;2023-04-21T05:30:54;99482.34;;;8.52;100.00
70103;BME280;57470;50.034;15.256;2023-04-21T05:33:19;99486.16;;;8.48;100.00
70103;BME280;57470;50.034;15.256;2023-04-21T05:35:45;99484.78;;;8.41;100.00
70103;BME280;57470;50.034;15.256;2023-04-21T05:38:11;99492.66;;;8.43;100.00
70103;BME280;57470;50.034;15.256;2023-04-21T05:40:36;99487.78;;;8.65;100.00
70103;BME280;57470;50.034;15.256;2023-04-21T05:43:01;99478.81;;;8.82;100.00
70103;BME280;57470;50.034;15.256;2023-04-21T05:45:27;99480.41;;;8.98;100.00
70103;BME280;57470;50.034;15.256;2023-04-21T05:47:52;99483.91;;;9.13;98.91
70103;BME280;57470;50.034;15.256;2023-04-21T05:50:18;99479.06;;;9.06;98.74
70103;BME280;57470;50.034;15.256;2023-04-21T05:52:43;99477.38;;;9.19;98.32
70103;BME280;57470;50.034;15.256;2023-04-21T05:55:08;99484.94;;;9.39;97.42
70103;BME280;57470;50.034;15.256;2023-04-21T05:57:34;99489.00;;;9.45;97.43
70103;BME280;57470;50.034;15.256;2023-04-21T05:59:59;99483.19;;;9.52;95.60
70103;BME280;57470;50.034;15.256;2023-04-21T06:02:25;99482.97;;;9.69;94.90
70103;BME280;57470;50.034;15.256;2023-04-21T06:04:50;99483.41;;;9.76;94.17
70103;BME280;57470;50.034;15.256;2023-04-21T06:07:15;99483.91;;;9.95;93.67
70103;BME280;57470;50.034;15.256;2023-04-21T06:09:42;99482.44;;;10.04;92.78
70103;BME280;57470;50.034;15.256;2023-04-21T06:12:07;99484.59;;;10.11;92.68
70103;BME280;57470;50.034;15.256;2023-04-21T06:14:33;99486.00;;;10.44;91.56
70103;BME280;57470;50.034;15.256;2023-04-21T06:16:58;99484.75;;;10.87;91.11
70103;BME280;57470;50.034;15.256;2023-04-21T06:19:24;99479.44;;;10.62;90.09
70103;BME280;57470;50.034;15.256;2023-04-21T06:21:49;99475.47;;;10.93;90.94
70103;BME280;57470;50.034;15.256;2023-04-21T06:24:15;99472.38;;;11.12;89.27
70103;BME280;57470;50.034;15.256;2023-04-21T06:26:41;99469.00;;;10.84;88.14
70103;BME280;57470;50.034;15.256;2023-04-21T06:29:06;99476.69;;;11.51;89.12
70103;BME280;57470;50.034;15.256;2023-04-21T06:31:31;99474.03;;;11.87;87.68
70103;BME280;57470;50.034;15.256;2023-04-21T06:33:57;99478.47;;;11.63;85.92
70103;BME280;57470;50.034;15.256;2023-04-21T06:36:22;99476.06;;;12.08;86.01
70103;BME280;57470;50.034;15.256;2023-04-21T06:38:48;99476.41;;;12.38;85.89
70103;BME280;57470;50.034;15.256;2023-04-21T06:41:13;99475.41;;;12.28;84.56
70103;BME280;57470;50.034;15.256;2023-04-21T06:43:39;99470.38;;;12.47;83.42
70103;BME280;57470;50.034;15.256;2023-04-21T06:46:04;99474.56;;;12.73;83.89
70103;BME280;57470;50.034;15.256;2023-04-21T06:48:30;99469.53;;;13.04;82.01
70103;BME280;57470;50.034;15.256;2023-04-21T06:50:56;99463.94;;;12.96;81.60
70103;BME280;57470;50.034;15.256;2023-04-21T06:53:21;99466.00;;;13.37;81.00
70103;BME280;57470;50.034;15.256;2023-04-21T06:55:47;99466.56;;;13.63;80.76
70103;BME280;57470;50.034;15.256;2023-04-21T06:58:12;99473.19;;;13.25;81.78
70103;BME280;57470;50.034;15.256;2023-04-21T07:00:38;99467.75;;;13.81;78.94
70103;BME280;57470;50.034;15.256;2023-04-21T07:03:03;99468.91;;;13.56;79.75
70103;BME280;57470;50.034;15.256;2023-04-21T07:05:29;99463.22;;;13.93;77.81
70103;BME280;57470;50.034;15.256;2023-04-21T07:07:54;99460.72;;;14.44;77.28
70103;BME280;57470;50.034;15.256;2023-04-21T07:10:27;99467.19;;;14.62;77.53
70103;BME280;57470;50.034;15.256;2023-04-21T07:12:53;99473.28;;;14.64;76.59
70103;BME280;57470;50.034;15.256;2023-04-21T07:15:19;99472.81;;;15.40;77.56
70103;BME280;57470;50.034;15.256;2023-04-21T07:17:44;99472.75;;;14.91;77.08
70103;BME280;57470;50.034;15.256;2023-04-21T07:20:10;99464.66;;;14.40;76.01
70103;BME280;57470;50.034;15.256;2023-04-21T07:22:36;99470.38;;;14.97;74.83
70103;BME280;57470;50.034;15.256;2023-04-21T07:25:04;99466.78;;;14.87;75.06
70103;BME280;57470;50.034;15.256;2023-04-21T07:27:31;99459.06;;;15.24;75.87
70103;BME280;57470;50.034;15.256;2023-04-21T07:29:57;99457.72;;;15.30;73.22
70103;BME280;57470;50.034;15.256;2023-04-21T07:32:23;99466.56;;;15.30;74.55
70103;BME280;57470;50.034;15.256;2023-04-21T07:34:48;99460.19;;;15.22;73.73
70103;BME280;57470;50.034;15.256;2023-04-21T07:37:14;99465.38;;;15.44;72.77
70103;BME280;57470;50.034;15.256;2023-04-21T07:39:40;99457.59;;;15.41;75.13
70103;BME280;57470;50.034;15.256;2023-04-21T07:42:06;99459.56;;;15.89;72.37
70103;BME280;57470;50.034;15.256;2023-04-21T07:44:33;99457.97;;;15.67;72.58
70103;BME280;57470;50.034;15.256;2023-04-21T07:46:58;99456.09;;;16.27;72.93
70103;BME280;57470;50.034;15.256;2023-04-21T07:49:23;99450.63;;;15.59;72.59
70103;BME280;57470;50.034;15.256;2023-04-21T07:51:49;99459.63;;;16.27;72.32
70103;BME280;57470;50.034;15.256;2023-04-21T07:54:14;99452.09;;;16.40;71.06
70103;BME280;57470;50.034;15.256;2023-04-21T07:56:39;99453.81;;;16.22;70.36
70103;BME280;57470;50.034;15.256;2023-04-21T07:59:05;99452.22;;;16.48;69.52
70103;BME280;57470;50.034;15.256;2023-04-21T08:01:30;99455.09;;;16.28;71.67
70103;BME280;57470;50.034;15.256;2023-04-21T08:03:56;99455.38;;;16.25;71.62
70103;BME280;57470;50.034;15.256;2023-04-21T08:06:21;99453.09;;;16.20;71.21
70103;BME280;57470;50.034;15.256;2023-04-21T08:08:47;99463.56;;;16.62;70.20
70103;BME280;57470;50.034;15.256;2023-04-21T08:11:12;99444.72;;;16.91;69.90
70103;BME280;57470;50.034;15.256;2023-04-21T08:13:37;99452.69;;;16.44;70.38
70103;BME280;57470;50.034;15.256;2023-04-21T08:16:03;99454.06;;;16.29;69.14
70103;BME280;57470;50.034;15.256;2023-04-21T08:18:29;99445.38;;;16.93;68.87
70103;BME280;57470;50.034;15.256;2023-04-21T08:20:55;99438.53;;;17.17;68.01
70103;BME280;57470;50.034;15.256;2023-04-21T08:23:22;99440.91;;;16.74;66.16
70103;BME280;57470;50.034;15.256;2023-04-21T08:25:47;99445.28;;;17.21;67.30
70103;BME280;57470;50.034;15.256;2023-04-21T08:28:12;99432.56;;;16.77;68.52
70103;BME280;57470;50.034;15.256;2023-04-21T08:30:40;99441.28;;;17.35;69.04
70103;BME280;57470;50.034;15.256;2023-04-21T08:33:06;99441.13;;;17.37;68.11
70103;BME280;57470;50.034;15.256;2023-04-21T08:35:32;99441.63;;;17.50;67.69
70103;BME280;57470;50.034;15.256;2023-04-21T08:37:58;99434.28;;;17.97;66.44
70103;BME280;57470;50.034;15.256;2023-04-21T08:40:31;99434.75;;;17.01;66.80
70103;BME280;57470;50.034;15.256;2023-04-21T08:42:57;99444.66;;;17.37;66.39
70103;BME280;57470;50.034;15.256;2023-04-21T08:45:22;99433.63;;;17.68;65.24
70103;BME280;57470;50.034;15.256;2023-04-21T08:47:48;99428.34;;;17.76;66.26
70103;BME280;57470;50.034;15.256;2023-04-21T08:50:14;99429.91;;;18.14;64.89
70103;BME280;57470;50.034;15.256;2023-04-21T08:52:40;99431.91;;;18.12;63.68
70103;BME280;57470;50.034;15.256;2023-04-21T08:55:06;99430.50;;;18.25;64.82
70103;BME280;57470;50.034;15.256;2023-04-21T08:57:32;99431.66;;;18.58;65.17
70103;BME280;57470;50.034;15.256;2023-04-21T08:59:57;99430.41;;;18.35;65.15
70103;BME280;57470;50.034;15.256;2023-04-21T09:02:22;99430.28;;;18.19;63.64
70103;BME280;57470;50.034;15.256;2023-04-21T09:04:50;99421.09;;;18.65;64.51
70103;BME280;57470;50.034;15.256;2023-04-21T09:07:33;99424.97;;;18.27;65.22
70103;BME280;57470;50.034;15.256;2023-04-21T09:09:59;99425.13;;;18.61;64.13
70103;BME280;57470;50.034;15.256;2023-04-21T09:12:24;99426.53;;;18.55;64.89
70103;BME280;57470;50.034;15.256;2023-04-21T09:14:50;99426.34;;;18.49;63.48
70103;BME280;57470;50.034;15.256;2023-04-21T09:17:17;99418.59;;;18.97;62.61
70103;BME280;57470;50.034;15.256;2023-04-21T09:19:42;99421.97;;;18.99;63.04
70103;BME280;57470;50.034;15.256;2023-04-21T09:22:08;99415.94;;;18.36;62.81
70103;BME280;57470;50.034;15.256;2023-04-21T09:24:33;99409.69;;;18.71;63.54
70103;BME280;57470;50.034;15.256;2023-04-21T09:27:01;99406.13;;;18.53;64.41
70103;BME280;57470;50.034;15.256;2023-04-21T09:29:28;99417.41;;;18.92;62.54
70103;BME280;57470;50.034;15.256;2023-04-21T09:31:54;99417.09;;;18.95;61.58
70103;BME280;57470;50.034;15.256;2023-04-21T09:34:24;99417.47;;;19.08;61.64
70103;BME280;57470;50.034;15.256;2023-04-21T09:37:03;99411.59;;;18.79;60.48
70103;BME280;57470;50.034;15.256;2023-04-21T09:39:30;99405.63;;;18.67;60.79
70103;BME280;57470;50.034;15.256;2023-04-21T09:41:56;99408.19;;;19.02;59.66
70103;BME280;57470;50.034;15.256;2023-04-21T09:44:26;99400.22;;;19.27;60.10
70103;BME280;57470;50.034;15.256;2023-04-21T09:47:00;99402.00;;;19.10;58.85
70103;BME280;57470;50.034;15.256;2023-04-21T09:49:30;99401.53;;;19.15;60.97
70103;BME280;57470;50.034;15.256;2023-04-21T09:51:59;99410.50;;;19.57;58.86
70103;BME280;57470;50.034;15.256;2023-04-21T09:54:29;99405.34;;;19.04;59.25
70103;BME280;57470;50.034;15.256;2023-04-21T09:56:58;99400.53;;;19.24;59.47
70103;BME280;57470;50.034;15.256;2023-04-21T09:59:37;99398.13;;;19.13;59.03
70103;BME280;57470;50.034;15.256;2023-04-21T10:02:05;99396.69;;;18.66;58.43
70103;BME280;57470;50.034;15.256;2023-04-21T10:04:33;99393.59;;;18.61;59.38
70103;BME280;57470;50.034;15.256;2023-04-21T10:06:59;99401.22;;;18.66;60.19
70103;BME280;57470;50.034;15.256;2023-04-21T10:09:30;99395.06;;;18.56;59.85
70103;BME280;57470;50.034;15.256;2023-04-21T10:11:59;99389.63;;;18.48;60.79
70103;BME280;57470;50.034;15.256;2023-04-21T10:14:26;99383.81;;;18.78;58.20
70103;BME280;57470;50.034;15.256;2023-04-21T10:17:10;99384.56;;;18.27;58.67
70103;BME280;57470;50.034;15.256;2023-04-21T10:19:37;99382.97;;;18.78;58.64
70103;BME280;57470;50.034;15.256;2023-04-21T10:22:11;99385.06;;;18.92;57.62
70103;BME280;57470;50.034;15.256;2023-04-21T10:24:41;99381.16;;;19.62;59.02
70103;BME280;57470;50.034;15.256;2023-04-21T10:27:11;99376.16;;;19.92;58.53
70103;BME280;57470;50.034;15.256;2023-04-21T10:29:37;99376.47;;;19.80;57.48
70103;BME280;57470;50.034;15.256;2023-04-21T10:32:03;99379.22;;;20.13;57.72
70103;BME280;57470;50.034;15.256;2023-04-21T10:34:38;99371.75;;;20.23;54.99
70103;BME280;57470;50.034;15.256;2023-04-21T10:39:33;99364.19;;;20.27;53.77
70103;BME280;57470;50.034;15.256;2023-04-21T10:44:43;99363.97;;;19.79;52.77
70103;BME280;57470;50.034;15.256;2023-04-21T10:47:09;99356.72;;;19.96;55.10
70103;BME280;57470;50.034;15.256;2023-04-21T10:49:39;99358.63;;;20.44;53.99
70103;BME280;57470;50.034;15.256;2023-04-21T10:52:07;99353.38;;;20.10;54.04
70103;BME280;57470;50.034;15.256;2023-04-21T10:57:07;99355.41;;;19.92;52.97
70103;BME280;57470;50.034;15.256;2023-04-21T10:59:34;99356.56;;;19.98;53.08
70103;BME280;57470;50.034;15.256;2023-04-21T11:02:01;99342.94;;;20.48;52.92
70103;BME280;57470;50.034;15.256;2023-04-21T11:04:27;99340.56;;;20.12;50.66
70103;BME280;57470;50.034;15.256;2023-04-21T11:26:03;99330.41;;;20.22;50.42
70103;BME280;57470;50.034;15.256;2023-04-21T11:28:28;99331.59;;;20.20;50.33
70103;BME280;57470;50.034;15.256;2023-04-21T11:30:54;99318.81;;;20.93;50.59
70103;BME280;57470;50.034;15.256;2023-04-21T11:33:19;99318.47;;;20.88;49.92
70103;BME280;57470;50.034;15.256;2023-04-21T11:35:45;99322.31;;;20.31;49.61
70103;BME280;57470;50.034;15.256;2023-04-21T11:38:10;99318.41;;;20.49;50.48
70103;BME280;57470;50.034;15.256;2023-04-21T11:40:48;99322.94;;;20.73;52.42
70103;BME280;57470;50.034;15.256;2023-04-21T11:43:14;99316.56;;;20.34;49.07
70103;BME280;57470;50.034;15.256;2023-04-21T11:45:40;99318.63;;;19.99;50.68
70103;BME280;57470;50.034;15.256;2023-04-21T11:48:15;99320.63;;;20.54;49.66
70103;BME280;57470;50.034;15.256;2023-04-21T11:50:46;99317.94;;;20.46;51.46
70103;BME280;57470;50.034;15.256;2023-04-21T11:53:14;99308.81;;;20.31;50.47
70103;BME280;57470;50.034;15.256;2023-04-21T11:55:44;99319.78;;;20.45;49.33
70103;BME280;57470;50.034;15.256;2023-04-21T11:58:10;99326.50;;;20.33;51.52
70103;BME280;57470;50.034;15.256;2023-04-21T12:00:36;99323.84;;;20.01;53.76
70103;BME280;57470;50.034;15.256;2023-04-21T12:03:01;99322.16;;;20.16;54.52
70103;BME280;57470;50.034;15.256;2023-04-21T12:05:34;99328.28;;;19.43;54.65
70103;BME280;57470;50.034;15.256;2023-04-21T12:08:00;99315.16;;;19.40;53.08
70103;BME280;57470;50.034;15.256;2023-04-21T12:10:27;99320.72;;;19.47;54.08
70103;BME280;57470;50.034;15.256;2023-04-21T12:12:54;99325.19;;;19.72;53.90
70103;BME280;57470;50.034;15.256;2023-04-21T12:15:20;99321.19;;;19.34;53.15
70103;BME280;57470;50.034;15.256;2023-04-21T12:17:51;99320.88;;;19.37;53.55
70103;BME280;57470;50.034;15.256;2023-04-21T12:20:19;99313.22;;;20.07;52.57
70103;BME280;57470;50.034;15.256;2023-04-21T12:22:45;99314.50;;;20.60;50.82
70103;BME280;57470;50.034;15.256;2023-04-21T12:25:11;99310.31;;;20.41;48.53
70103;BME280;57470;50.034;15.256;2023-04-21T12:27:36;99306.94;;;20.55;51.58
70103;BME280;57470;50.034;15.256;2023-04-21T12:30:02;99316.69;;;19.51;49.30
70103;BME280;57470;50.034;15.256;2023-04-21T12:32:28;99316.59;;;20.17;49.98
70103;BME280;57470;50.034;15.256;2023-04-21T12:34:54;99308.25;;;19.46;49.45
70103;BME280;57470;50.034;15.256;2023-04-21T12:37:19;99310.75;;;19.31;49.99
70103;BME280;57470;50.034;15.256;2023-04-21T12:39:44;99308.38;;;19.28;51.52
70103;BME280;57470;50.034;15.256;2023-04-21T12:42:10;99313.09;;;19.34;52.69
70103;BME280;57470;50.034;15.256;2023-04-21T12:44:36;99311.59;;;19.40;51.79
70103;BME280;57470;50.034;15.256;2023-04-21T12:47:02;99305.00;;;19.34;53.68
70103;BME280;57470;50.034;15.256;2023-04-21T12:49:27;99304.75;;;19.03;52.85
70103;BME280;57470;50.034;15.256;2023-04-21T12:51:52;99308.16;;;19.14;51.88
70103;BME280;57470;50.034;15.256;2023-04-21T12:54:18;99303.25;;;19.09;51.07
70103;BME280;57470;50.034;15.256;2023-04-21T12:56:43;99303.00;;;19.44;53.39
70103;BME280;57470;50.034;15.256;2023-04-21T12:59:09;99293.63;;;19.73;50.47
70103;BME280;57470;50.034;15.256;2023-04-21T13:01:39;99295.81;;;19.61;51.63
70103;BME280;57470;50.034;15.256;2023-04-21T13:04:06;99294.63;;;20.04;51.52
70103;BME280;57470;50.034;15.256;2023-04-21T13:06:31;99292.28;;;20.09;49.42
70103;BME280;57470;50.034;15.256;2023-04-21T13:08:57;99296.00;;;19.84;49.00
70103;BME280;57470;50.034;15.256;2023-04-21T13:11:23;99297.78;;;19.43;54.55
70103;BME280;57470;50.034;15.256;2023-04-21T13:13:48;99293.56;;;19.32;51.86
70103;BME280;57470;50.034;15.256;2023-04-21T13:16:13;99290.78;;;19.16;52.06